Time;durP1;ratioP1;P1;durP2;ratioP2;P2;SDS_P1;SDS_P2;PMS_P1;PMS_P2;Temp;Humidity;BMP_temperature;BMP_pressure;BME280_temperature;BME280_humidity;BME280_pressure;Samples;Min_cycle;Max_cycle;Signal;HPM_P1;HPM_P2
2023/05/02 00:00:14;;;;;;;5.38;4.22;;;19.40;60.00;;;;;;5048736;28;20131;-51
2023/05/02 00:02:40;;;;;;;6.55;4.68;;;19.40;60.00;;;;;;5045015;28;20136;-52
2023/05/02 00:05:06;;;;;;;7.47;4.25;;;19.40;60.00;;;;;;5048743;28;20032;-50
2023/05/02 00:07:32;;;;;;;6.40;4.53;;;19.40;60.10;;;;;;5014657;28;20034;-49
2023/05/02 00:09:58;;;;;;;5.80;4.55;;;19.40;60.10;;;;;;5051027;28;20044;-48
2023/05/02 00:12:23;;;;;;;5.25;4.03;;;19.40;60.10;;;;;;5047118;28;20443;-46
2023/05/02 00:14:49;;;;;;;7.68;4.13;;;19.40;60.10;;;;;;5047869;28;20042;-47
2023/05/02 00:17:18;;;;;;;5.00;4.00;;;19.40;60.20;;;;;;5052907;28;20198;-50
2023/05/02 00:19:44;;;;;;;4.57;4.10;;;19.40;60.10;;;;;;5050507;28;20037;-51
2023/05/02 00:22:09;;;;;;;5.75;4.30;;;19.40;60.10;;;;;;5048059;28;20049;-48
2023/05/02 00:24:35;;;;;;;5.68;4.57;;;19.40;60.20;;;;;;5045343;28;20410;-48
2023/05/02 00:27:01;;;;;;;4.15;3.58;;;19.40;60.20;;;;;;5047738;28;20104;-51
2023/05/02 00:29:26;;;;;;;5.13;3.85;;;19.40;60.20;;;;;;5046648;28;20037;-50
2023/05/02 00:31:52;;;;;;;6.75;4.53;;;19.40;60.20;;;;;;5028001;28;20038;-50
2023/05/02 00:34:17;;;;;;;4.07;3.67;;;19.40;60.20;;;;;;5048197;28;20043;-49
2023/05/02 00:36:43;;;;;;;4.25;3.60;;;19.30;60.20;;;;;;5046377;28;20040;-50
2023/05/02 00:39:08;;;;;;;4.40;3.92;;;19.40;60.30;;;;;;5051222;28;20036;-55
2023/05/02 00:41:34;;;;;;;6.30;4.00;;;19.30;60.20;;;;;;5046735;28;20516;-49
2023/05/02 00:43:59;;;;;;;4.55;3.80;;;19.30;60.20;;;;;;5049831;28;20029;-50
2023/05/02 00:46:25;;;;;;;4.50;4.00;;;19.30;60.20;;;;;;5051001;28;20133;-51
2023/05/02 00:48:51;;;;;;;4.30;3.90;;;19.30;60.90;;;;;;5050767;28;20564;-53
2023/05/02 00:51:17;;;;;;;8.00;4.10;;;19.30;60.30;;;;;;5050729;28;20028;-50
2023/05/02 00:53:43;;;;;;;6.05;3.80;;;19.30;60.30;;;;;;5045047;28;20587;-51
2023/05/02 00:56:08;;;;;;;5.13;3.95;;;19.30;60.40;;;;;;5047648;28;20032;-50
2023/05/02 00:58:35;;;;;;;5.78;3.80;;;19.30;60.30;;;;;;5045068;28;20033;-52
2023/05/02 01:01:21;;;;;;;4.53;3.50;;;19.30;60.40;;;;;;5047933;28;20494;-52
2023/05/02 01:03:58;;;;;;;5.70;4.22;;;19.30;60.30;;;;;;5045088;28;20844;-50
2023/05/02 01:06:51;;;;;;;4.65;3.88;;;19.30;60.30;;;;;;5009516;28;20391;-52
2023/05/02 01:09:37;;;;;;;4.00;3.60;;;19.30;60.40;;;;;;5048261;28;20060;-49
2023/05/02 01:12:28;;;;;;;;;;;19.30;60.50;;;;;;5050105;28;20120;-49
2023/05/02 01:14:56;;;;;;;5.32;3.92;;;19.20;60.40;;;;;;5004606;28;20357;-50
2023/05/02 01:17:27;;;;;;;4.07;3.67;;;19.20;60.40;;;;;;5052814;28;20106;-49
2023/05/02 01:20:03;;;;;;;4.75;3.65;;;19.20;60.40;;;;;;5046957;28;20743;-52
2023/05/02 01:22:31;;;;;;;4.57;3.85;;;19.20;60.30;;;;;;5045414;28;20148;-49
2023/05/02 01:25:08;;;;;;;6.28;4.13;;;19.20;60.40;;;;;;5026631;28;20029;-47
2023/05/02 01:27:57;;;;;;;4.78;4.13;;;19.20;60.40;;;;;;5045792;28;20033;-51
2023/05/02 01:30:25;;;;;;;4.95;4.10;;;19.20;60.40;;;;;;5046008;28;20044;-49
2023/05/02 01:32:52;;;;;;;4.97;3.53;;;19.20;60.50;;;;;;5048594;28;20044;-50
2023/05/02 01:35:20;;;;;;;4.45;3.75;;;19.20;60.50;;;;;;5048818;28;20025;-51
2023/05/02 01:37:47;;;;;;;4.57;4.07;;;19.20;60.50;;;;;;5046030;28;20094;-50
2023/05/02 01:40:17;;;;;;;4.72;3.75;;;19.20;60.40;;;;;;5044625;28;20021;-51
2023/05/02 01:42:43;;;;;;;4.65;3.63;;;19.20;60.50;;;;;;5048946;28;20040;-52
2023/05/02 01:45:11;;;;;;;3.92;3.60;;;19.20;60.50;;;;;;5053338;28;20180;-51
2023/05/02 01:47:37;;;;;;;4.70;3.53;;;19.20;60.50;;;;;;5050347;28;20029;-50
2023/05/02 01:50:06;;;;;;;4.22;3.50;;;19.20;60.50;;;;;;5042105;28;20037;-49
2023/05/02 01:52:33;;;;;;;3.75;3.38;;;19.20;60.60;;;;;;5046474;28;20053;-50
2023/05/02 01:55:00;;;;;;;3.83;3.40;;;19.20;60.60;;;;;;5042391;28;20147;-50
2023/05/02 01:57:26;;;;;;;4.25;3.80;;;19.20;60.60;;;;;;5046887;28;20085;-52
2023/05/02 01:59:55;;;;;;;3.95;3.47;;;19.20;60.50;;;;;;5045240;28;20677;-52
2023/05/02 02:05:27;;;;;;;4.40;4.00;;;19.20;60.60;;;;;;5041660;28;20056;-50
2023/05/02 02:07:52;;;;;;;3.60;3.25;;;19.10;60.50;;;;;;5044358;28;20029;-51
2023/05/02 02:10:18;;;;;;;4.07;3.65;;;19.10;60.50;;;;;;5047781;28;20043;-48
2023/05/02 02:13:12;;;;;;;4.82;3.75;;;19.10;60.50;;;;;;5048283;28;20037;-54
2023/05/02 02:15:40;;;;;;;4.68;3.40;;;19.10;60.50;;;;;;5048995;28;20041;-49
2023/05/02 02:18:12;;;;;;;3.72;3.30;;;19.10;60.60;;;;;;5044074;28;20032;-49
2023/05/02 02:20:40;;;;;;;3.90;3.42;;;19.10;60.60;;;;;;5015801;28;20438;-50
2023/05/02 02:23:07;;;;;;;3.47;3.17;;;19.10;60.60;;;;;;5045427;28;20064;-50
2023/05/02 02:25:33;;;;;;;4.05;3.58;;;19.00;60.70;;;;;;5044725;28;20116;-48
2023/05/02 02:28:00;;;;;;;4.53;3.92;;;19.00;60.70;;;;;;5027856;28;20051;-48
2023/05/02 02:30:25;;;;;;;4.72;3.45;;;19.00;60.80;;;;;;5028160;28;20394;-59
2023/05/02 02:32:51;;;;;;;5.03;3.20;;;19.00;60.70;;;;;;5050239;28;20029;-49
2023/05/02 02:35:17;;;;;;;4.15;3.50;;;19.00;60.80;;;;;;5028145;28;20052;-51
2023/05/02 02:37:50;;;;;;;4.35;3.60;;;19.00;60.80;;;;;;5045020;28;20448;-48
2023/05/02 02:40:41;;;;;;;3.47;3.17;;;19.00;60.80;;;;;;5023896;28;20047;-53
2023/05/02 02:43:31;;;;;;;4.35;3.40;;;19.00;60.90;;;;;;5052656;28;20036;-52
2023/05/02 02:46:19;;;;;;;3.80;3.35;;;18.90;60.80;;;;;;5046539;28;20107;-50
2023/05/02 02:48:58;;;;;;;3.80;3.35;;;18.90;60.90;;;;;;5013796;28;20113;-51
2023/05/02 02:51:42;;;;;;;3.53;3.22;;;18.90;60.90;;;;;;5046210;28;20037;-51
2023/05/02 02:54:27;;;;;;;3.47;3.17;;;18.90;60.90;;;;;;5046084;28;20064;-49
2023/05/02 02:57:22;;;;;;;3.53;3.10;;;18.90;61.00;;;;;;5044807;28;20048;-50
2023/05/02 03:00:14;;;;;;;3.50;3.17;;;18.90;61.00;;;;;;5044760;28;20037;-48
2023/05/02 03:02:42;;;;;;;3.80;3.10;;;18.90;61.00;;;;;;5041061;28;20033;-48
2023/05/02 03:05:09;;;;;;;3.78;3.30;;;18.90;61.00;;;;;;5047865;28;20602;-48
2023/05/02 03:07:35;;;;;;;3.15;2.85;;;18.90;61.70;;;;;;5047746;28;20041;-47
2023/05/02 03:10:03;;;;;;;3.45;3.15;;;18.90;61.00;;;;;;5060991;23;20102;-61
2023/05/02 03:12:28;;;;;;;4.18;3.28;;;18.90;61.00;;;;;;5052432;28;20062;-61
2023/05/02 03:15:07;;;;;;;3.75;3.28;;;18.90;61.70;;;;;;5049523;28;20069;-61
2023/05/02 03:17:32;;;;;;;3.50;3.17;;;18.90;61.00;;;;;;5039263;28;20033;-61
2023/05/02 03:19:58;;;;;;;4.10;3.33;;;18.90;61.10;;;;;;5020064;28;20030;-61
2023/05/02 03:22:23;;;;;;;3.75;3.45;;;18.90;61.10;;;;;;5020576;28;20060;-62
2023/05/02 03:24:49;;;;;;;3.88;3.28;;;18.90;61.10;;;;;;5021836;28;20494;-60
2023/05/02 03:27:14;;;;;;;3.40;3.00;;;18.90;61.10;;;;;;5023687;28;20032;-59
2023/05/02 03:29:40;;;;;;;4.05;3.20;;;18.90;61.00;;;;;;5021992;28;20309;-61
2023/05/02 03:32:06;;;;;;;3.72;3.13;;;18.90;61.00;;;;;;5019685;28;20044;-61
2023/05/02 03:34:31;;;;;;;3.47;3.10;;;18.90;61.00;;;;;;5022477;28;20045;-61
2023/05/02 03:36:57;;;;;;;3.78;3.30;;;18.90;61.00;;;;;;5023253;28;20087;-60
2023/05/02 03:39:22;;;;;;;3.50;3.08;;;18.90;61.00;;;;;;5019583;28;20025;-63
2023/05/02 03:41:48;;;;;;;3.63;3.00;;;18.90;60.90;;;;;;5021315;28;20029;-61
2023/05/02 03:44:13;;;;;;;3.38;3.00;;;18.90;60.90;;;;;;5025687;28;20116;-62
2023/05/02 03:46:39;;;;;;;3.60;3.17;;;18.90;60.90;;;;;;5024193;28;20108;-60
2023/05/02 03:49:04;;;;;;;3.28;2.97;;;18.90;60.90;;;;;;5026893;28;20133;-61
2023/05/02 03:51:30;;;;;;;3.45;3.15;;;18.90;60.80;;;;;;5021809;28;20034;-61
2023/05/02 03:53:57;;;;;;;3.00;2.70;;;18.90;60.70;;;;;;5021801;28;20514;-60
2023/05/02 03:56:23;;;;;;;3.30;3.00;;;19.00;60.70;;;;;;5023817;28;20088;-61
2023/05/02 03:58:48;;;;;;;3.15;2.85;;;19.00;60.60;;;;;;5019529;28;20033;-61
2023/05/02 04:01:17;;;;;;;3.47;2.65;;;19.10;60.50;;;;;;5022410;28;20033;-60
2023/05/02 04:03:42;;;;;;;3.60;3.30;;;19.00;60.30;;;;;;5017307;28;20862;-61
2023/05/02 04:06:08;;;;;;;3.53;3.22;;;19.10;60.30;;;;;;5018995;28;20037;-61
2023/05/02 04:08:33;;;;;;;3.22;2.90;;;19.10;60.10;;;;;;5020528;28;20038;-60
2023/05/02 04:10:59;;;;;;;3.53;3.20;;;19.10;59.90;;;;;;5014210;28;20701;-61
2023/05/02 04:13:25;;;;;;;4.15;3.15;;;19.10;59.80;;;;;;5008027;28;20032;-62
2023/05/02 04:15:50;;;;;;;3.35;2.75;;;19.20;59.80;;;;;;5022568;28;20046;-62
2023/05/02 04:18:15;;;;;;;4.38;3.45;;;19.20;59.60;;;;;;5020985;28;20410;-62
2023/05/02 04:20:44;;;;;;;3.63;2.67;;;19.20;59.50;;;;;;4994767;28;20026;-62
2023/05/02 04:23:09;;;;;;;3.50;3.20;;;19.30;59.50;;;;;;5017663;28;20036;-62
2023/05/02 04:25:35;;;;;;;3.58;2.97;;;19.30;59.40;;;;;;5022212;28;20033;-62
2023/05/02 04:28:00;;;;;;;3.17;2.28;;;19.30;59.30;;;;;;5020167;28;20033;-62
2023/05/02 04:30:26;;;;;;;3.78;2.92;;;19.40;59.40;;;;;;5022725;28;20033;-59
2023/05/02 04:32:52;;;;;;;3.15;2.85;;;19.40;59.40;;;;;;5020856;28;20030;-62
2023/05/02 04:35:18;;;;;;;3.67;3.22;;;19.40;59.40;;;;;;5020105;28;20036;-62
2023/05/02 04:37:43;;;;;;;3.05;2.60;;;19.40;59.20;;;;;;5020904;28;20375;-63
2023/05/02 04:40:10;;;;;;;3.17;2.80;;;19.50;59.20;;;;;;5022907;28;20048;-62
2023/05/02 04:42:35;;;;;;;3.08;2.70;;;19.50;59.10;;;;;;5024564;28;20029;-62
2023/05/02 04:45:01;;;;;;;3.30;2.88;;;19.50;59.10;;;;;;5021899;28;20032;-61
2023/05/02 04:47:26;;;;;;;2.80;2.60;;;19.50;59.00;;;;;;5021739;28;20029;-59
2023/05/02 04:49:52;;;;;;;4.60;2.40;;;19.50;58.90;;;;;;5019314;28;20034;-61
2023/05/02 04:52:18;;;;;;;3.22;2.80;;;19.50;59.00;;;;;;5022428;28;20128;-61
2023/05/02 04:54:43;;;;;;;3.33;2.85;;;19.50;58.80;;;;;;5019919;28;20041;-60
2023/05/02 04:57:09;;;;;;;3.28;2.53;;;19.60;58.90;;;;;;5021304;28;20056;-61
2023/05/02 04:59:35;;;;;;;2.65;2.40;;;19.60;59.00;;;;;;5018623;28;20152;-61
2023/05/02 05:02:01;;;;;;;3.00;2.70;;;19.60;59.40;;;;;;5025582;28;20033;-61
2023/05/02 05:04:27;;;;;;;2.75;2.47;;;19.60;58.90;;;;;;5021949;28;20032;-60
2023/05/02 05:06:53;;;;;;;2.55;2.35;;;19.60;58.90;;;;;;5020034;28;20639;-61
2023/05/02 05:09:19;;;;;;;3.35;2.55;;;19.60;58.90;;;;;;5021381;28;20030;-61
2023/05/02 05:11:45;;;;;;;3.10;2.58;;;19.60;58.90;;;;;;5020412;28;20510;-61
2023/05/02 05:14:11;;;;;;;2.90;2.60;;;19.60;58.90;;;;;;5020156;28;20439;-60
2023/05/02 05:16:36;;;;;;;3.00;2.70;;;19.60;58.90;;;;;;5001235;28;20030;-62
2023/05/02 05:19:03;;;;;;;3.40;3.10;;;19.60;59.00;;;;;;5018200;28;20044;-60
2023/05/02 05:21:28;;;;;;;3.17;2.60;;;19.60;58.90;;;;;;5003427;28;20041;-67
2023/05/02 05:23:54;;;;;;;3.75;2.70;;;19.60;58.90;;;;;;5019238;28;20038;-59
2023/05/02 05:26:20;;;;;;;2.63;2.42;;;19.60;59.00;;;;;;5022424;28;20036;-61
2023/05/02 05:28:45;;;;;;;3.90;2.75;;;19.60;59.10;;;;;;4990967;28;20036;-60
2023/05/02 05:31:15;;;;;;;3.83;2.58;;;19.60;59.00;;;;;;5020176;28;20026;-61
2023/05/02 05:33:41;;;;;;;3.45;2.45;;;19.60;59.10;;;;;;5019368;28;20025;-62
2023/05/02 05:36:08;;;;;;;4.97;2.83;;;19.60;59.10;;;;;;5019712;28;20435;-60
2023/05/02 05:38:34;;;;;;;3.00;2.70;;;19.60;59.10;;;;;;5017213;28;20030;-61
2023/05/02 05:41:00;;;;;;;4.38;2.50;;;19.50;59.10;;;;;;5022697;28;20468;-61
2023/05/02 05:43:26;;;;;;;3.80;3.22;;;19.50;59.20;;;;;;5019573;28;20033;-62
2023/05/02 05:45:53;;;;;;;4.40;3.30;;;19.50;59.30;;;;;;5018284;28;20087;-61
2023/05/02 05:48:19;;;;;;;3.65;3.00;;;19.50;59.20;;;;;;5000380;28;20060;-60
2023/05/02 05:50:44;;;;;;;3.53;3.00;;;19.50;59.90;;;;;;4988902;28;20054;-59
2023/05/02 05:53:10;;;;;;;3.70;3.00;;;19.50;59.40;;;;;;5020820;28;20120;-61
2023/05/02 05:55:37;;;;;;;5.57;3.72;;;19.50;59.40;;;;;;5020253;28;20057;-62
2023/05/02 05:58:03;;;;;;;5.47;3.22;;;19.50;59.50;;;;;;5019348;28;20275;-61
2023/05/02 06:00:28;;;;;;;5.40;3.95;;;19.50;59.50;;;;;;5019079;28;20490;-61
2023/05/02 06:02:54;;;;;;;5.47;3.60;;;19.50;59.50;;;;;;5019959;28;20032;-61
2023/05/02 06:05:19;;;;;;;6.75;3.80;;;19.50;59.50;;;;;;5019890;28;20486;-61
2023/05/02 06:07:45;;;;;;;6.78;3.63;;;19.50;59.50;;;;;;5018168;28;20083;-60
2023/05/02 06:10:11;;;;;;;5.10;3.47;;;19.50;59.50;;;;;;5017085;28;20060;-61
2023/05/02 06:12:36;;;;;;;6.55;3.65;;;19.50;59.70;;;;;;5022259;28;20025;-61
2023/05/02 06:15:02;;;;;;;4.63;3.92;;;19.40;59.70;;;;;;5021163;28;20266;-61
2023/05/02 06:17:27;;;;;;;6.50;3.97;;;19.50;59.70;;;;;;5018434;28;20033;-60
2023/05/02 06:19:53;;;;;;;4.90;3.97;;;19.40;59.70;;;;;;5019551;28;20037;-62
2023/05/02 06:22:18;;;;;;;6.70;3.88;;;19.40;59.70;;;;;;5019375;28;20273;-62
2023/05/02 06:24:44;;;;;;;4.45;3.75;;;19.40;59.80;;;;;;5018318;28;20044;-62
2023/05/02 06:27:09;;;;;;;6.40;4.53;;;19.40;59.80;;;;;;5019641;28;20025;-62
2023/05/02 06:29:35;;;;;;;4.43;3.75;;;19.40;59.80;;;;;;5016917;28;20109;-61
2023/05/02 06:32:00;;;;;;;6.53;3.95;;;19.40;59.90;;;;;;5018831;28;20037;-62
2023/05/02 06:34:26;;;;;;;4.22;3.70;;;19.40;59.90;;;;;;5018932;28;20113;-62
2023/05/02 06:36:57;;;;;;;6.72;3.53;;;19.40;59.90;;;;;;4994868;28;20649;-62
2023/05/02 06:39:23;;;;;;;5.88;4.25;;;19.40;59.90;;;;;;5017240;28;20140;-62
2023/05/02 06:41:48;;;;;;;7.05;3.88;;;19.40;59.90;;;;;;5019029;28;20687;-61
2023/05/02 06:44:14;;;;;;;5.75;3.92;;;19.40;59.90;;;;;;5008674;28;20486;-62
2023/05/02 06:46:40;;;;;;;6.22;4.68;;;19.40;59.90;;;;;;5022783;28;20120;-62
2023/05/02 06:49:05;;;;;;;6.88;4.18;;;19.40;59.90;;;;;;5022203;28;20039;-62
2023/05/02 06:51:31;;;;;;;6.85;4.32;;;19.40;60.60;;;;;;5022848;28;20106;-62
2023/05/02 06:53:57;;;;;;;5.85;4.35;;;19.40;60.00;;;;;;5023218;28;20037;-59
2023/05/02 06:56:24;;;;;;;6.05;3.38;;;19.40;60.00;;;;;;5025313;28;20052;-60
2023/05/02 06:58:50;;;;;;;6.60;3.92;;;19.30;60.00;;;;;;5022887;28;20033;-61
2023/05/02 07:01:16;;;;;;;5.25;4.32;;;19.30;60.10;;;;;;5022752;28;20490;-60
2023/05/02 07:03:41;;;;;;;6.40;4.18;;;19.30;60.70;;;;;;5020156;28;20030;-60
2023/05/02 07:06:07;;;;;;;7.32;4.72;;;19.30;60.20;;;;;;5018239;28;20030;-60
2023/05/02 07:08:32;;;;;;;6.55;4.63;;;19.30;60.20;;;;;;5016168;28;20506;-59
2023/05/02 07:10:58;;;;;;;7.13;4.30;;;19.20;60.20;;;;;;5019832;28;20507;-60
2023/05/02 07:13:23;;;;;;;6.38;4.22;;;19.20;60.30;;;;;;5016433;28;20037;-61
2023/05/02 07:15:49;;;;;;;8.55;4.63;;;19.30;60.40;;;;;;5017150;28;20048;-60
2023/05/02 07:18:14;;;;;;;10.10;4.68;;;19.20;60.50;;;;;;5015936;28;20079;-60
2023/05/02 07:20:41;;;;;;;8.55;5.05;;;19.20;60.50;;;;;;5019337;28;20025;-61
2023/05/02 07:23:07;;;;;;;11.07;5.40;;;19.20;60.60;;;;;;5022973;28;20048;-61
2023/05/02 07:25:34;;;;;;;10.95;6.18;;;19.20;60.70;;;;;;5019259;28;20040;-60
2023/05/02 07:27:59;;;;;;;8.35;4.97;;;19.20;60.70;;;;;;5022029;28;20037;-59
2023/05/02 07:30:24;;;;;;;10.10;5.13;;;19.20;60.80;;;;;;5016781;28;20025;-61
2023/05/02 07:32:50;;;;;;;10.40;4.97;;;19.20;60.90;;;;;;5022777;28;20037;-60
2023/05/02 07:35:16;;;;;;;8.45;5.20;;;19.20;61.00;;;;;;5024866;28;20543;-61
2023/05/02 07:37:41;;;;;;;10.85;5.95;;;19.20;60.90;;;;;;5019654;28;20394;-59
2023/05/02 07:40:08;;;;;;;8.65;5.22;;;19.20;61.00;;;;;;5023991;28;20071;-61
2023/05/02 07:42:34;;;;;;;11.07;5.88;;;19.10;60.90;;;;;;5021132;28;20033;-60
2023/05/02 07:44:59;;;;;;;11.80;6.03;;;19.10;60.90;;;;;;5021476;28;20761;-59
2023/05/02 07:47:25;;;;;;;10.07;5.20;;;19.20;61.00;;;;;;5004858;28;20025;-60
2023/05/02 07:49:52;;;;;;;8.93;5.32;;;19.10;61.00;;;;;;5002347;28;20103;-61
2023/05/02 07:52:18;;;;;;;10.02;5.35;;;19.20;61.00;;;;;;4994858;28;20172;-62
2023/05/02 07:54:44;;;;;;;10.02;5.25;;;19.20;61.00;;;;;;5020735;28;20037;-61
2023/05/02 07:57:11;;;;;;;10.30;6.07;;;19.20;60.90;;;;;;4990790;28;20663;-62
2023/05/02 07:59:37;;;;;;;8.38;5.53;;;19.20;60.90;;;;;;5024743;28;20045;-62
2023/05/02 08:02:03;;;;;;;8.40;4.93;;;19.20;60.80;;;;;;5019185;28;20041;-62
2023/05/02 08:04:28;;;;;;;10.43;5.43;;;19.20;60.80;;;;;;5006143;28;20044;-62
2023/05/02 08:06:54;;;;;;;9.82;5.78;;;19.20;60.80;;;;;;5022627;28;20026;-62
2023/05/02 08:09:20;;;;;;;11.30;5.68;;;19.20;60.70;;;;;;5021249;28;20124;-61
2023/05/02 08:11:46;;;;;;;9.98;5.40;;;19.20;60.70;;;;;;5018071;28;20048;-61
2023/05/02 08:14:12;;;;;;;9.60;5.40;;;19.20;60.70;;;;;;5021736;28;20102;-61
2023/05/02 08:16:37;;;;;;;9.85;5.13;;;19.20;60.70;;;;;;5004491;28;20555;-61
2023/05/02 08:19:03;;;;;;;8.57;5.45;;;19.20;60.70;;;;;;5021092;28;20117;-61
2023/05/02 08:21:30;;;;;;;8.65;4.78;;;19.20;60.60;;;;;;5008152;28;20223;-62
2023/05/02 08:23:57;;;;;;;11.10;5.95;;;19.20;60.70;;;;;;5006827;28;20055;-61
2023/05/02 08:26:23;;;;;;;10.15;5.85;;;19.30;60.70;;;;;;4991816;28;20404;-60
2023/05/02 08:28:50;;;;;;;11.25;5.90;;;19.20;60.60;;;;;;5017796;28;20021;-60
2023/05/02 08:31:16;;;;;;;12.70;5.40;;;19.20;60.70;;;;;;5015224;28;20107;-60
2023/05/02 08:33:41;;;;;;;7.80;5.45;;;19.20;60.90;;;;;;5015989;28;20533;-61
2023/05/02 08:36:11;;;;;;;11.23;5.68;;;19.20;60.90;;;;;;5018481;28;20029;-60
2023/05/02 08:38:37;;;;;;;9.00;5.10;;;19.20;61.00;;;;;;5018204;28;20287;-61
2023/05/02 08:41:08;;;;;;;9.18;5.18;;;19.20;61.00;;;;;;5017423;28;20061;-61
2023/05/02 08:43:34;;;;;;;8.15;5.07;;;19.20;61.10;;;;;;4999344;28;20041;-61
2023/05/02 08:46:03;;;;;;;10.20;5.70;;;19.20;61.10;;;;;;5021577;28;20033;-60
2023/05/02 08:48:29;;;;;;;9.25;5.68;;;19.20;61.10;;;;;;5019283;28;20227;-61
2023/05/02 08:50:55;;;;;;;8.63;4.93;;;19.20;61.10;;;;;;5021547;28;20033;-60
2023/05/02 08:53:22;;;;;;;6.82;4.60;;;19.20;61.10;;;;;;5002538;28;20120;-61
2023/05/02 08:55:48;;;;;;;10.27;5.18;;;19.20;61.20;;;;;;5019970;28;20034;-61
2023/05/02 08:58:13;;;;;;;9.68;4.78;;;19.20;61.10;;;;;;5020442;28;20025;-61
2023/05/02 09:00:40;;;;;;;7.45;4.47;;;19.20;61.80;;;;;;5020661;28;20543;-60
2023/05/02 09:03:31;;;;;;;10.95;5.30;;;19.20;61.20;;;;;;5021323;28;20018;-60
2023/05/02 09:06:13;;;;;;;15.65;6.00;;;19.20;61.10;;;;;;5019778;28;20025;-59
2023/05/02 09:08:40;;;;;;;9.82;4.80;;;19.20;61.20;;;;;;5018027;28;20030;-60
2023/05/02 09:11:07;;;;;;;9.50;4.75;;;19.20;61.20;;;;;;5022654;28;20053;-61
2023/05/02 09:13:35;;;;;;;7.53;4.60;;;19.10;61.10;;;;;;5020549;28;20473;-60
2023/05/02 09:16:05;;;;;;;8.52;4.78;;;19.20;61.10;;;;;;5021515;28;20072;-59
2023/05/02 09:18:33;;;;;;;6.32;4.13;;;19.20;61.10;;;;;;5020301;28;20164;-59
2023/05/02 09:21:00;;;;;;;7.72;4.50;;;19.20;61.10;;;;;;5020737;28;20145;-60
2023/05/02 09:23:43;;;;;;;9.43;4.65;;;19.20;61.10;;;;;;5020749;28;20516;-59
2023/05/02 09:26:18;;;;;;;9.32;4.78;;;19.10;61.00;;;;;;5023333;28;20541;-60
2023/05/02 09:28:45;;;;;;;8.10;4.65;;;19.20;61.10;;;;;;5019690;28;20033;-61
2023/05/02 09:31:15;;;;;;;6.40;4.63;;;19.20;61.00;;;;;;5020644;28;20021;-60
2023/05/02 09:33:41;;;;;;;10.35;4.38;;;19.20;61.00;;;;;;5022366;28;20037;-60
2023/05/02 09:36:14;;;;;;;8.20;4.18;;;19.20;60.90;;;;;;5019506;28;20021;-60
2023/05/02 09:38:40;;;;;;;6.70;4.18;;;19.20;60.90;;;;;;5020391;28;20025;-60
2023/05/02 09:41:06;;;;;;;7.25;4.80;;;19.20;60.90;;;;;;5000036;28;20068;-59
2023/05/02 09:43:32;;;;;;;6.57;3.88;;;19.20;60.80;;;;;;5020167;28;20610;-61
2023/05/02 09:46:08;;;;;;;7.82;4.68;;;19.20;60.80;;;;;;5020286;28;20033;-59
2023/05/02 09:48:51;;;;;;;8.20;3.78;;;19.20;60.70;;;;;;5015538;28;20450;-60
2023/05/02 09:51:17;;;;;;;7.47;4.70;;;19.20;60.70;;;;;;5018572;28;20029;-60
2023/05/02 09:53:44;;;;;;;6.40;4.22;;;19.20;60.60;;;;;;5019669;28;20033;-60
2023/05/02 09:56:10;;;;;;;6.80;4.57;;;19.20;60.70;;;;;;5018213;28;20026;-59
2023/05/02 09:58:36;;;;;;;6.88;4.57;;;19.20;60.60;;;;;;4998150;28;20053;-60
2023/05/02 10:01:02;;;;;;;7.47;4.47;;;19.20;60.60;;;;;;5017770;28;20025;-59
2023/05/02 10:03:28;;;;;;;8.32;4.50;;;19.20;60.60;;;;;;5000550;28;20112;-60
2023/05/02 10:05:55;;;;;;;7.78;4.00;;;19.30;60.60;;;;;;5020403;28;20017;-60
2023/05/02 10:08:23;;;;;;;6.72;4.63;;;19.30;60.60;;;;;;5017703;28;20121;-60
2023/05/02 10:10:56;;;;;;;5.75;3.85;;;19.30;60.60;;;;;;5020537;28;20068;-62
2023/05/02 10:13:30;;;;;;;6.70;3.80;;;19.30;60.50;;;;;;5020676;28;20026;-60
2023/05/02 10:16:06;;;;;;;7.22;3.72;;;19.30;60.60;;;;;;5014879;28;20398;-59
2023/05/02 10:19:04;;;;;;;7.32;3.80;;;19.30;60.60;;;;;;5018833;28;20060;-60
2023/05/02 10:21:31;;;;;;;9.52;4.45;;;19.30;60.50;;;;;;5012193;28;20340;-60
2023/05/02 10:23:56;;;;;;;6.72;4.20;;;19.30;60.50;;;;;;5019036;28;20033;-61
2023/05/02 10:26:22;;;;;;;7.07;3.75;;;19.30;60.60;;;;;;5021343;28;20028;-61
2023/05/02 10:28:50;;;;;;;5.30;3.60;;;19.30;60.60;;;;;;5018961;28;20030;-59
2023/05/02 10:31:16;;;;;;;7.90;4.47;;;19.30;60.50;;;;;;4990213;28;20038;-59
2023/05/02 10:33:42;;;;;;;6.70;3.92;;;19.30;60.60;;;;;;4997908;28;20037;-60
2023/05/02 10:36:09;;;;;;;6.72;3.55;;;19.30;60.60;;;;;;4991617;28;20033;-60
2023/05/02 10:38:35;;;;;;;6.30;3.67;;;19.30;60.60;;;;;;5013293;28;20041;-59
2023/05/02 10:41:07;;;;;;;4.88;3.47;;;19.30;60.50;;;;;;5014744;28;20101;-59
2023/05/02 10:43:35;;;;;;;7.70;3.95;;;19.30;60.50;;;;;;4999767;28;20080;-60
2023/05/02 10:46:04;;;;;;;5.60;3.60;;;19.30;60.50;;;;;;5019368;28;20038;-60
2023/05/02 10:48:30;;;;;;;7.03;4.72;;;19.30;60.50;;;;;;5013609;28;20442;-60
2023/05/02 10:51:00;;;;;;;5.90;3.83;;;19.40;60.50;;;;;;5015663;28;20030;-60
2023/05/02 10:53:28;;;;;;;6.00;3.33;;;19.40;60.50;;;;;;5018611;28;20090;-61
2023/05/02 10:56:16;;;;;;;6.68;3.85;;;19.30;60.50;;;;;;5020344;28;20026;-61
2023/05/02 10:58:44;;;;;;;5.55;3.33;;;19.30;60.40;;;;;;5013829;28;20034;-61
2023/05/02 11:01:27;;;;;;;7.80;3.50;;;19.40;60.50;;;;;;5014518;28;20017;-60
2023/05/02 11:04:03;;;;;;;5.40;3.75;;;19.30;60.50;;;;;;5017296;28;20076;-61
2023/05/02 11:06:32;;;;;;;4.38;3.15;;;19.40;60.50;;;;;;4991108;28;20029;-60
2023/05/02 11:09:21;;;;;;;5.88;3.35;;;19.40;60.50;;;;;;5000741;28;20193;-61
2023/05/02 11:11:51;;;;;;;7.28;4.13;;;19.40;60.50;;;;;;5004765;28;20037;-60
2023/05/02 11:14:26;;;;;;;5.18;2.88;;;19.40;60.60;;;;;;5016623;28;20033;-60
2023/05/02 11:17:00;;;;;;;7.25;3.22;;;19.30;60.50;;;;;;5019601;28;20068;-60
2023/05/02 11:19:26;;;;;;;4.90;3.20;;;19.40;61.20;;;;;;5012169;28;20495;-60
2023/05/02 11:21:53;;;;;;;5.35;3.00;;;19.40;60.60;;;;;;5016675;28;20034;-60
2023/05/02 11:24:46;;;;;;;5.32;3.47;;;19.30;60.50;;;;;;5015534;28;20040;-60
2023/05/02 11:27:36;;;;;;;4.25;3.50;;;19.30;60.50;;;;;;5000052;28;20037;-60
2023/05/02 11:30:07;;;;;;;6.82;3.35;;;19.30;60.50;;;;;;5019108;28;20048;-60
2023/05/02 11:32:48;;;;;;;6.10;3.22;;;19.40;60.50;;;;;;5004439;28;20034;-61
2023/05/02 11:35:19;;;;;;;4.25;3.35;;;19.40;60.60;;;;;;5019852;28;20087;-60
2023/05/02 11:37:53;;;;;;;3.60;3.03;;;19.40;61.20;;;;;;4994980;28;20052;-60
2023/05/02 11:40:19;;;;;;;5.32;2.88;;;19.30;60.50;;;;;;5015529;28;20121;-60
2023/05/02 11:42:45;;;;;;;6.88;3.60;;;19.40;60.50;;;;;;4996284;28;20121;-60
2023/05/02 11:45:11;;;;;;;4.57;3.40;;;19.40;60.60;;;;;;5020634;28;20037;-60
2023/05/02 11:47:37;;;;;;;3.45;3.15;;;19.40;60.60;;;;;;5019309;28;20041;-60
2023/05/02 11:50:06;;;;;;;6.00;3.35;;;19.40;60.60;;;;;;4998842;28;20443;-60
2023/05/02 11:52:40;;;;;;;4.63;3.60;;;19.40;60.50;;;;;;5019842;28;20065;-60
2023/05/02 11:55:07;;;;;;;3.90;3.22;;;19.40;60.60;;;;;;5022567;28;20044;-60
2023/05/02 11:57:33;;;;;;;4.90;3.10;;;19.40;60.70;;;;;;5020689;28;20029;-60
2023/05/02 11:59:59;;;;;;;5.40;3.10;;;19.40;60.60;;;;;;5019305;28;20041;-61
2023/05/02 12:02:36;;;;;;;4.63;3.42;;;19.40;60.70;;;;;;5020836;28;20456;-60
2023/05/02 12:05:04;;;;;;;4.47;2.95;;;19.40;60.60;;;;;;5017864;28;20034;-60
2023/05/02 12:07:35;;;;;;;5.18;3.60;;;19.30;60.60;;;;;;5016945;28;20060;-61
2023/05/02 12:10:01;;;;;;;3.97;2.83;;;19.40;60.70;;;;;;5018973;28;20044;-60
2023/05/02 12:12:26;;;;;;;4.10;2.95;;;19.40;60.70;;;;;;5022523;28;20025;-59
2023/05/02 12:14:53;;;;;;;3.03;2.72;;;19.30;60.60;;;;;;5020707;28;20033;-60
2023/05/02 12:17:18;;;;;;;4.38;3.17;;;19.40;60.70;;;;;;5020116;28;20277;-60
2023/05/02 12:19:44;;;;;;;2.88;2.50;;;19.40;60.60;;;;;;5004254;28;20041;-60
2023/05/02 12:22:12;;;;;;;6.65;3.15;;;19.40;60.60;;;;;;5022308;28;20025;-60
2023/05/02 12:24:38;;;;;;;4.72;2.90;;;19.40;60.70;;;;;;5020725;28;20029;-60
2023/05/02 12:27:14;;;;;;;3.83;3.05;;;19.40;60.70;;;;;;5020880;28;20524;-60
2023/05/02 12:29:44;;;;;;;3.85;2.90;;;19.40;60.70;;;;;;5019438;28;20037;-60
2023/05/02 12:32:10;;;;;;;4.78;3.30;;;19.30;60.60;;;;;;5022186;28;20509;-60
2023/05/02 12:34:37;;;;;;;4.13;2.50;;;19.40;60.80;;;;;;5019059;28;20041;-59
2023/05/02 12:37:03;;;;;;;4.60;3.03;;;19.30;60.70;;;;;;5019302;28;20494;-60
2023/05/02 12:39:36;;;;;;;3.72;2.67;;;19.40;60.80;;;;;;5015572;28;20103;-60
2023/05/02 12:42:12;;;;;;;3.80;2.72;;;19.40;60.70;;;;;;5020326;28;20037;-60
2023/05/02 12:44:39;;;;;;;5.07;2.95;;;19.40;60.80;;;;;;5019102;28;20095;-60
2023/05/02 12:47:05;;;;;;;5.57;2.80;;;19.30;60.70;;;;;;5016831;28;20030;-61
2023/05/02 12:49:31;;;;;;;4.05;2.50;;;19.30;60.80;;;;;;5024853;28;20037;-61
2023/05/02 12:51:57;;;;;;;5.30;2.95;;;19.30;60.80;;;;;;5022425;28;20083;-61
2023/05/02 12:54:24;;;;;;;3.72;2.75;;;19.30;60.90;;;;;;5019874;28;20041;-59